Local Weather Observations
KPOV - Ravena/Portage, Ohio, USA
Distance from station: W 14mi, 23km
Updated: Thu, Aug-11-2022 10:35am EDT
Mostly cloudy
Mostly cloudy
 Wind from NW
Wind: NW 5 mph , 7 km/h
Temperature: 73°F , 23°C
Dew Point: 57°F , 14°C
Humidity: 57%
Barometer: 30.09 inHg , 1019 hPa
Clouds: Mostly cloudy
Visibility: 10 miles , 16 km
Cloud details: Mostly cloudy 3300 ft
Mostly cloudy 6500 ft
2022/08/11 14:35 KPOV 111435Z AUTO 32004KT 10SM BKN033 BKN065 23/14 A3009 RMK AO2 T02270136 PWINO
KYNG - Youngstown, Ohio, USA
Distance from station: ENE 16mi, 27km
Updated: Thu, Aug-11-2022 10:51am EDT
Overcast
Overcast
 Wind from NNW
Wind: NNW 9 mph , 15 km/h
Temperature: 73°F , 23°C
Dew Point: 57°F , 14°C
Humidity: 57%
Barometer: 30.09 inHg , 1019 hPa
Clouds: Overcast
Visibility: 10 miles , 16 km
Cloud details: Partly cloudy 2600 ft
Mostly cloudy 7000 ft
Overcast 22000 ft
2022/08/11 14:51 KYNG 111451Z 33008KT 10SM SCT026 BKN070 OVC220 23/14 A3009 RMK AO2 SLP185 T02280144 53008
 
KAKR - Akron (fulton), Ohio, USA
Distance from station: WSW 28mi, 45km
Updated: Thu, Aug-11-2022 9:54am EDT
Clear
Clear
 Wind from N
Wind: N 7 mph , 11 km/h
Temperature: 75°F , 24°C
Dew Point: 61°F , 16°C
Humidity: 61%
Barometer: 30.08 inHg , 1018.6 hPa
Clouds: Clear
Visibility: 10 miles , 16 km
2022/08/11 13:54 KAKR 111354Z AUTO 01006KT 10SM CLR 24/16 A3008 RMK AO2 SLP179 T02440156
KUCP - New Castle Muni, Pennsylvania, USA
Distance from station: ESE 31mi, 50km
Updated: Thu, Aug-11-2022 10:49am EDT
Mostly cloudy
Mostly cloudy
 Wind from N
Wind: N 5 mph , 7 km/h
Temperature: 72°F , 22°C
Dew Point: 64°F , 18°C
Humidity: 78%
Clouds: Mostly cloudy
Visibility: 10 miles , 16 km
Cloud details: Partly cloudy 1300 ft
Mostly cloudy 4700 ft
2022/08/11 14:49 KUCP 111449Z AUTO 01004KT 10SM SCT013 BKN047 22/18 RMK AO2 $
 
KCAK - Akron, Ohio, USA
Distance from station: SW 31mi, 51km
Updated: Thu, Aug-11-2022 10:51am EDT
Partly cloudy
Partly cloudy
 Wind from NNE
Wind: NNE 7 mph , 11 km/h
Temperature: 77°F , 25°C
Dew Point: 61°F , 16°C
Humidity: 57%
Barometer: 30.09 inHg , 1019 hPa
Clouds: Partly cloudy
Visibility: 10 miles , 16 km
Cloud details: Few Clouds 4000 ft
Partly cloudy 9000 ft
Partly cloudy 21000 ft
2022/08/11 14:51 KCAK 111451Z 03006KT 10SM FEW040 SCT090 SCT210 25/16 A3009 RMK AO2 SLP182 T02500156 51006